Time;durP1;ratioP1;P1;durP2;ratioP2;P2;SDS_P1;SDS_P2;PMS_P1;PMS_P2;Temp;Humidity;BMP_temperature;BMP_pressure;BME280_temperature;BME280_humidity;BME280_pressure;Samples;Min_cycle;Max_cycle;Signal;HPM_P1;HPM_P2
2021/10/23 00:02:12;;;;;;;3.83;2.77;;;;;;;8.71;64.25;96358.38;6094005;23;20668;-85
2021/10/23 00:04:39;;;;;;;4.73;2.77;;;;;;;8.71;64.46;96355.81;6094969;23;20227;-86
2021/10/23 00:07:06;;;;;;;2.63;2.17;;;;;;;8.69;64.39;96360.28;6094150;23;20195;-85
2021/10/23 00:09:32;;;;;;;7.80;2.37;;;;;;;8.70;64.02;96355.94;6094445;23;20554;-85
2021/10/23 00:11:59;;;;;;;2.87;1.93;;;;;;;8.70;64.29;96364.47;6094537;23;20179;-85
2021/10/23 00:14:27;;;;;;;4.80;2.30;;;;;;;8.66;64.47;96361.38;6096041;23;20202;-85
2021/10/23 00:16:53;;;;;;;3.73;2.17;;;;;;;8.62;64.49;96357.50;6095853;23;20180;-86
2021/10/23 00:19:20;;;;;;;3.83;2.47;;;;;;;8.65;64.49;96364.09;6096317;23;20200;-84
2021/10/23 00:21:47;;;;;;;3.50;1.97;;;;;;;8.62;64.66;96361.81;6096261;23;20181;-85
2021/10/23 00:24:13;;;;;;;4.10;2.13;;;;;;;8.63;64.38;96361.69;6096661;23;20275;-85
2021/10/23 00:26:40;;;;;;;4.40;2.40;;;;;;;8.65;63.79;96361.53;6096768;23;20176;-85
2021/10/23 00:29:06;;;;;;;3.03;2.03;;;;;;;8.69;63.89;96367.16;6096505;23;20799;-84
2021/10/23 00:31:34;;;;;;;3.97;2.10;;;;;;;8.65;63.72;96366.69;6096339;23;20184;-84
2021/10/23 00:34:01;;;;;;;4.83;2.17;;;;;;;8.70;63.86;96366.22;6096886;23;20226;-85
2021/10/23 00:36:27;;;;;;;3.10;1.90;;;;;;;8.71;63.42;96365.25;6096932;23;20180;-85
2021/10/23 00:38:54;;;;;;;8.10;2.47;;;;;;;8.73;63.62;96359.03;6097430;23;20736;-84
2021/10/23 00:41:20;;;;;;;3.97;2.20;;;;;;;8.72;63.35;96369.44;6097299;23;20184;-85
2021/10/23 00:43:47;;;;;;;4.50;2.50;;;;;;;8.71;63.37;96363.50;6097617;23;20247;-86
2021/10/23 00:46:15;;;;;;;3.03;1.97;;;;;;;8.72;63.38;96369.44;6098731;23;20177;-86
2021/10/23 00:48:43;;;;;;;2.70;2.03;;;;;;;8.67;63.36;96362.19;6096462;23;20175;-85
2021/10/23 00:51:10;;;;;;;3.63;1.90;;;;;;;8.63;63.25;96355.75;6096272;23;20172;-85
2021/10/23 00:53:37;;;;;;;3.00;1.70;;;;;;;8.59;63.48;96367.25;6095300;23;20200;-85
2021/10/23 00:56:04;;;;;;;4.13;2.03;;;;;;;8.57;63.81;96367.38;6097186;23;20188;-85
2021/10/23 00:58:30;;;;;;;3.07;1.80;;;;;;;8.52;63.70;96371.31;6105895;23;20196;-86
2021/10/23 01:00:57;;;;;;;3.47;2.10;;;;;;;8.52;63.25;96369.56;6099205;23;20497;-85
2021/10/23 01:03:23;;;;;;;3.20;1.90;;;;;;;8.56;63.53;96370.09;6095438;23;20215;-84
2021/10/23 01:05:51;;;;;;;4.47;2.27;;;;;;;8.56;63.27;96368.34;6095574;23;20237;-86
2021/10/23 01:08:18;;;;;;;4.90;2.10;;;;;;;8.58;63.40;96373.31;6095148;23;20183;-86
2021/10/23 01:10:44;;;;;;;4.10;1.90;;;;;;;8.52;63.55;96371.31;6095413;23;20634;-85
2021/10/23 01:13:11;;;;;;;6.43;2.30;;;;;;;8.56;63.18;96370.91;6094866;23;20200;-85
2021/10/23 01:15:38;;;;;;;4.07;2.20;;;;;;;8.55;63.30;96377.00;6095398;23;20188;-86
2021/10/23 01:18:07;;;;;;;2.87;1.80;;;;;;;8.56;63.29;96372.66;6094577;23;20215;-86
2021/10/23 01:20:35;;;;;;;4.27;2.20;;;;;;;8.53;63.23;96370.38;6094949;23;20206;-85
2021/10/23 01:23:02;;;;;;;5.30;2.43;;;;;;;8.50;63.38;96370.66;6094664;23;20187;-86
2021/10/23 01:25:31;;;;;;;3.87;2.00;;;;;;;8.46;63.37;96375.31;6095200;23;20180;-84
2021/10/23 01:28:00;;;;;;;3.93;2.00;;;;;;;8.34;63.83;96376.44;6094841;23;20180;-85
2021/10/23 01:30:27;;;;;;;3.50;1.90;;;;;;;8.31;63.95;96380.06;6095736;23;20242;-84
2021/10/23 01:32:54;;;;;;;4.47;2.00;;;;;;;8.36;63.98;96376.28;6095399;23;20240;-85
2021/10/23 01:35:22;;;;;;;3.10;2.03;;;;;;;8.32;63.81;96371.44;6094788;23;20172;-86
2021/10/23 01:37:51;;;;;;;3.97;2.10;;;;;;;8.38;63.76;96379.53;6094849;23;20180;-86
2021/10/23 01:40:23;;;;;;;6.63;2.57;;;;;;;8.34;64.05;96379.00;6095117;23;20581;-85
2021/10/23 01:42:49;;;;;;;3.90;2.37;;;;;;;8.37;64.02;96381.28;6094624;23;20180;-85
2021/10/23 01:45:16;;;;;;;4.90;2.00;;;;;;;8.34;63.64;96381.56;6095358;23;20180;-85
2021/10/23 01:47:43;;;;;;;2.77;1.97;;;;;;;8.32;64.25;96384.25;6095203;23;20227;-83
2021/10/23 01:50:14;;;;;;;3.60;2.17;;;;;;;8.31;64.18;96382.63;6094763;23;20177;-85
2021/10/23 01:52:40;;;;;;;3.70;2.03;;;;;;;8.33;63.95;96377.38;6094907;23;20188;-84
2021/10/23 01:55:10;;;;;;;5.53;2.20;;;;;;;8.34;63.98;96378.19;6095168;23;20200;-85
2021/10/23 01:57:38;;;;;;;2.70;2.00;;;;;;;8.29;63.55;96376.81;6095260;23;20176;-83
2021/10/23 02:00:06;;;;;;;4.70;2.30;;;;;;;8.31;63.59;96376.69;6095030;23;20196;-85
2021/10/23 02:02:32;;;;;;;4.53;2.33;;;;;;;8.34;63.84;96378.19;6095098;23;20184;-85
2021/10/23 02:04:59;;;;;;;3.77;2.00;;;;;;;8.34;63.63;96380.75;6094994;23;20204;-86
2021/10/23 02:07:25;;;;;;;2.33;2.00;;;;;;;8.31;63.83;96382.63;6095259;23;20176;-85
2021/10/23 02:09:52;;;;;;;3.93;2.37;;;;;;;8.25;63.98;96385.78;6096879;23;20176;-85
2021/10/23 02:12:19;;;;;;;4.50;2.13;;;;;;;8.20;63.90;96387.13;6096198;23;20183;-84
2021/10/23 02:14:47;;;;;;;2.83;1.80;;;;;;;8.23;63.80;96389.44;6095528;23;20570;-84
2021/10/23 02:17:13;;;;;;;2.67;1.93;;;;;;;8.25;63.43;96387.53;6095694;23;20179;-84
2021/10/23 02:19:40;;;;;;;4.03;2.20;;;;;;;8.25;63.45;96390.09;6096416;23;20200;-85
2021/10/23 02:22:06;;;;;;;4.93;2.30;;;;;;;8.29;63.35;96386.28;6095771;23;20180;-85
2021/10/23 02:24:32;;;;;;;2.57;2.00;;;;;;;8.21;63.89;96383.63;6096674;23;20204;-84
2021/10/23 02:26:59;;;;;;;3.30;2.20;;;;;;;8.26;63.46;96386.59;6096164;23;20180;-85
2021/10/23 02:29:29;;;;;;;5.37;2.20;;;;;;;8.25;63.34;96383.22;6096546;23;20172;-85
2021/10/23 02:31:55;;;;;;;2.27;1.70;;;;;;;8.29;63.80;96386.28;6096295;23;20547;-85
2021/10/23 02:34:22;;;;;;;3.97;2.20;;;;;;;8.28;63.77;96392.34;6095951;23;20200;-84
2021/10/23 02:36:48;;;;;;;3.07;2.63;;;;;;;8.30;63.76;96393.81;6095643;23;20313;-85
2021/10/23 02:39:15;;;;;;;3.70;2.00;;;;;;;8.28;63.57;96395.72;6096400;23;20207;-85
2021/10/23 02:41:41;;;;;;;3.83;2.07;;;;;;;8.28;63.64;96397.47;6095687;23;20183;-85
2021/10/23 02:44:07;;;;;;;6.17;2.30;;;;;;;8.30;63.88;96400.72;6096281;23;20204;-85
2021/10/23 02:46:35;;;;;;;2.80;2.13;;;;;;;8.35;63.82;96401.13;6096522;23;20180;-85
2021/10/23 02:49:02;;;;;;;2.97;1.70;;;;;;;8.34;63.67;96396.16;6096192;23;20179;-85
2021/10/23 02:51:28;;;;;;;4.50;2.10;;;;;;;8.32;63.72;96407.34;6096397;23;20188;-86
2021/10/23 02:53:55;;;;;;;3.03;1.70;;;;;;;8.33;63.49;96403.03;6095873;23;20197;-86
2021/10/23 02:56:21;;;;;;;2.80;1.90;;;;;;;8.35;63.61;96406.28;6096131;23;20219;-85
2021/10/23 02:58:47;;;;;;;3.63;2.00;;;;;;;8.38;63.74;96413.69;6096775;23;20180;-86
2021/10/23 03:01:14;;;;;;;4.37;2.00;;;;;;;8.42;63.73;96420.16;6096028;23;20180;-85
2021/10/23 03:03:42;;;;;;;3.97;2.07;;;;;;;8.45;63.90;96413.94;6095568;23;20208;-85
2021/10/23 03:06:11;;;;;;;4.33;2.23;;;;;;;8.49;63.54;96426.31;6095800;23;20180;-86
2021/10/23 03:08:38;;;;;;;4.03;2.17;;;;;;;8.43;63.80;96431.22;6096331;23;20188;-85
2021/10/23 03:11:04;;;;;;;3.20;2.00;;;;;;;8.33;64.67;96418.44;6096417;23;20289;-86
2021/10/23 03:13:31;;;;;;;7.77;2.43;;;;;;;8.35;63.91;96418.28;6096523;23;20219;-86
2021/10/23 03:15:57;;;;;;;4.80;2.10;;;;;;;8.33;64.03;96426.13;6096697;23;20191;-86
2021/10/23 03:18:24;;;;;;;3.20;1.97;;;;;;;8.26;64.28;96425.06;6095365;23;20215;-85
2021/10/23 03:20:53;;;;;;;3.70;2.03;;;;;;;8.32;64.02;96435.56;6095823;23;20196;-85
2021/10/23 03:23:20;;;;;;;6.07;2.27;;;;;;;8.31;63.92;96431.38;6096475;23;20203;-86
2021/10/23 03:25:47;;;;;;;3.67;2.03;;;;;;;8.37;63.92;96434.34;6096246;23;20187;-86
2021/10/23 03:28:13;;;;;;;3.27;1.77;;;;;;;8.37;64.19;96442.06;6095570;23;20172;-86
2021/10/23 03:30:40;;;;;;;4.73;2.20;;;;;;;8.42;64.14;96448.38;6095654;23;20179;-86
2021/10/23 03:33:07;;;;;;;5.27;2.20;;;;;;;8.42;63.94;96443.25;6095956;23;20192;-86
2021/10/23 03:35:33;;;;;;;3.57;1.90;;;;;;;8.53;63.70;96442.25;6095394;23;20180;-86
2021/10/23 03:38:02;;;;;;;3.20;2.00;;;;;;;8.55;70.29;96433.44;6095644;23;20187;-83
2021/10/23 03:40:28;;;;;;;3.53;2.17;;;;;;;8.72;65.33;96438.78;6096739;23;20200;-84
2021/10/23 03:42:55;;;;;;;2.80;2.10;;;;;;;8.74;64.23;96442.00;6096148;23;20180;-84
2021/10/23 03:45:21;;;;;;;4.80;2.40;;;;;;;8.72;64.02;96439.56;6096726;23;20187;-85
2021/10/23 03:47:48;;;;;;;3.77;1.80;;;;;;;8.68;64.06;96443.38;6095422;23;20487;-85
2021/10/23 03:50:14;;;;;;;2.57;1.90;;;;;;;8.63;64.05;96443.03;6095564;23;20188;-85
2021/10/23 03:52:41;;;;;;;4.33;1.90;;;;;;;8.59;64.28;96447.63;6095944;23;20179;-85
2021/10/23 03:55:10;;;;;;;5.17;2.37;;;;;;;8.64;64.27;96447.22;6095421;23;20681;-85
2021/10/23 03:57:37;;;;;;;2.53;1.70;;;;;;;8.71;64.19;96455.13;6095259;23;20215;-85
2021/10/23 04:00:04;;;;;;;2.93;2.17;;;;;;;8.72;63.96;96454.97;6095697;23;20204;-85
2021/10/23 04:02:31;;;;;;;3.60;2.20;;;;;;;8.76;64.04;96455.50;6095122;23;20188;-85
2021/10/23 04:04:57;;;;;;;2.77;1.80;;;;;;;8.78;63.83;96459.56;6095610;23;20216;-85
2021/10/23 04:07:24;;;;;;;4.50;1.90;;;;;;;8.81;63.66;96455.91;6095693;23;20255;-86
2021/10/23 04:09:51;;;;;;;2.47;1.90;;;;;;;8.85;63.73;96458.00;6095555;23;20179;-85
2021/10/23 04:12:18;;;;;;;4.40;2.13;;;;;;;8.87;63.64;96461.25;6096217;23;20179;-85
2021/10/23 04:14:45;;;;;;;2.40;1.70;;;;;;;8.90;63.90;96460.16;6095231;23;20200;-85
2021/10/23 04:17:11;;;;;;;3.37;1.70;;;;;;;8.87;63.68;96461.25;6095943;23;20180;-86
2021/10/23 04:19:38;;;;;;;4.20;2.00;;;;;;;8.83;63.46;96467.63;6095722;23;20255;-85
2021/10/23 04:22:04;;;;;;;4.40;1.90;;;;;;;8.84;64.05;96473.59;6096879;23;20180;-86
2021/10/23 04:24:30;;;;;;;3.03;1.90;;;;;;;8.83;63.86;96477.09;6096479;23;20585;-85
2021/10/23 04:26:58;;;;;;;4.90;2.00;;;;;;;8.84;63.76;96469.25;6096611;23;20569;-85
2021/10/23 04:29:26;;;;;;;2.93;1.90;;;;;;;8.85;63.69;96477.78;6096665;23;20622;-86
2021/10/23 04:31:52;;;;;;;2.90;2.00;;;;;;;8.87;63.80;96466.38;6097253;23;20531;-86
2021/10/23 04:34:18;;;;;;;1.97;1.60;;;;;;;8.83;63.76;96467.63;6098348;23;20204;-85
2021/10/23 04:36:45;;;;;;;2.47;1.70;;;;;;;8.85;64.15;96468.28;6098897;23;20240;-85
2021/10/23 04:39:13;;;;;;;2.37;1.73;;;;;;;8.86;63.97;96469.91;6099000;23;20187;-86
2021/10/23 04:41:39;;;;;;;3.97;2.00;;;;;;;8.82;63.86;96478.88;6098381;23;20239;-86
2021/10/23 04:44:05;;;;;;;3.80;1.93;;;;;;;8.82;64.01;96465.22;6098641;23;20200;-87
2021/10/23 04:46:34;;;;;;;2.57;1.80;;;;;;;8.82;63.85;96472.91;6098542;23;20187;-85
2021/10/23 04:49:00;;;;;;;4.33;2.03;;;;;;;8.83;63.86;96475.34;6098456;23;20491;-86
2021/10/23 04:51:26;;;;;;;4.20;2.17;;;;;;;8.92;63.97;96476.22;6098779;23;20173;-86
2021/10/23 04:53:53;;;;;;;3.27;1.80;;;;;;;8.93;64.08;96477.84;6098417;23;20207;-85
2021/10/23 04:56:20;;;;;;;7.43;2.17;;;;;;;8.94;63.96;96475.13;6098399;23;20183;-85
2021/10/23 04:58:47;;;;;;;1.83;1.50;;;;;;;8.99;64.07;96484.97;6099059;23;20180;-86
2021/10/23 05:01:14;;;;;;;3.20;1.90;;;;;;;8.94;64.21;96479.47;6100031;23;20239;-86
2021/10/23 05:03:42;;;;;;;3.27;1.50;;;;;;;8.93;63.94;96480.41;6099238;23;20204;-84
2021/10/23 05:06:08;;;;;;;3.33;1.77;;;;;;;8.91;64.33;96487.44;6099183;23;20681;-85
2021/10/23 05:08:35;;;;;;;4.47;1.90;;;;;;;8.94;64.00;96485.41;6100208;23;20191;-86
2021/10/23 05:11:01;;;;;;;5.27;1.90;;;;;;;8.91;64.01;96492.59;6099790;23;20172;-86
2021/10/23 05:13:27;;;;;;;2.50;1.80;;;;;;;8.92;64.19;96494.19;6100067;23;20255;-85
2021/10/23 05:15:54;;;;;;;3.87;2.10;;;;;;;8.92;64.21;96489.06;6099862;23;20184;-85
2021/10/23 05:18:20;;;;;;;5.10;1.90;;;;;;;8.93;64.36;96488.94;6099172;23;20207;-84
2021/10/23 05:20:48;;;;;;;3.97;1.67;;;;;;;8.92;64.03;96484.75;6098862;23;20200;-84
2021/10/23 05:23:15;;;;;;;4.17;2.00;;;;;;;8.94;63.86;96492.31;6100367;23;20196;-86
2021/10/23 05:25:41;;;;;;;2.73;1.80;;;;;;;8.92;64.18;96496.78;6100482;23;20208;-85
2021/10/23 05:28:08;;;;;;;3.83;1.97;;;;;;;8.96;64.45;96487.84;6099786;23;20247;-85
2021/10/23 05:30:34;;;;;;;5.40;1.70;;;;;;;9.00;64.06;96489.97;6102665;23;20181;-82
2021/10/23 05:33:00;;;;;;;4.57;1.90;;;;;;;9.05;64.26;96494.66;6096548;23;20180;-84
2021/10/23 05:35:27;;;;;;;3.87;1.90;;;;;;;9.02;64.45;96489.03;6096655;23;20543;-85
2021/10/23 05:37:55;;;;;;;3.83;2.00;;;;;;;9.04;64.27;96495.63;6096260;23;20646;-83
2021/10/23 05:40:21;;;;;;;4.03;1.90;;;;;;;9.05;64.09;96494.66;6095875;23;20507;-84
2021/10/23 05:42:48;;;;;;;4.37;2.00;;;;;;;9.03;64.34;96494.03;6095857;23;20180;-84
2021/10/23 05:45:14;;;;;;;4.53;1.93;;;;;;;8.98;64.20;96502.16;6095101;23;20650;-83
2021/10/23 05:47:40;;;;;;;3.10;1.93;;;;;;;8.95;64.38;96493.91;6095994;23;20188;-83
2021/10/23 05:50:08;;;;;;;5.73;2.23;;;;;;;8.96;64.61;96493.78;6095420;23;20176;-83
2021/10/23 05:52:35;;;;;;;4.43;1.93;;;;;;;8.98;64.67;96501.34;6094783;23;20211;-85
2021/10/23 05:55:04;;;;;;;3.80;2.33;;;;;;;9.00;64.52;96504.56;6095957;23;20959;-83
2021/10/23 05:57:30;;;;;;;3.53;1.83;;;;;;;9.04;64.28;96511.06;6095575;23;20180;-84
2021/10/23 05:59:57;;;;;;;4.10;2.17;;;;;;;8.98;65.03;96514.19;6095910;23;20709;-84
2021/10/23 06:02:24;;;;;;;2.60;2.20;;;;;;;8.99;65.06;96511.47;6096040;23;20195;-84
2021/10/23 06:04:52;;;;;;;3.20;2.27;;;;;;;8.99;65.22;96521.75;6096675;23;20207;-84
2021/10/23 06:07:19;;;;;;;2.90;1.90;;;;;;;8.97;64.71;96518.50;6096790;23;20187;-86
2021/10/23 06:09:46;;;;;;;2.70;1.87;;;;;;;8.99;64.43;96515.81;6096671;23;20211;-84
2021/10/23 06:12:14;;;;;;;3.77;2.10;;;;;;;8.97;64.32;96521.09;6096693;23;20689;-84
2021/10/23 06:14:41;;;;;;;3.40;1.60;;;;;;;9.05;64.18;96515.22;6095896;23;20207;-85
2021/10/23 06:17:07;;;;;;;5.20;1.70;;;;;;;9.04;64.55;96515.38;6096219;23;20181;-84
2021/10/23 06:19:34;;;;;;;2.80;1.90;;;;;;;9.07;64.42;96525.34;6096195;23;20243;-86
2021/10/23 06:22:01;;;;;;;5.10;2.00;;;;;;;9.11;64.43;96527.50;6095248;23;20709;-85
2021/10/23 06:24:28;;;;;;;3.63;1.70;;;;;;;9.09;64.24;96526.81;6096233;23;20204;-84
2021/10/23 06:26:55;;;;;;;3.03;2.00;;;;;;;9.12;64.09;96533.44;6095962;23;20263;-84
2021/10/23 06:29:22;;;;;;;3.53;2.00;;;;;;;9.04;64.40;96528.22;6095966;23;20181;-84
2021/10/23 06:31:51;;;;;;;4.13;2.30;;;;;;;9.07;64.39;96530.47;6095733;23;20176;-83
2021/10/23 06:34:17;;;;;;;6.77;2.30;;;;;;;9.07;64.31;96539.00;6095631;23;20207;-85
2021/10/23 06:36:44;;;;;;;5.20;1.90;;;;;;;9.00;64.09;96538.78;6095203;23;20502;-85
2021/10/23 06:39:10;;;;;;;2.30;1.90;;;;;;;8.98;64.14;96537.31;6095753;23;20176;-83
2021/10/23 06:41:37;;;;;;;5.70;2.13;;;;;;;8.95;64.56;96537.59;6094334;23;20200;-83
2021/10/23 06:44:03;;;;;;;4.53;2.20;;;;;;;8.99;64.46;96538.91;6094415;23;20196;-84
2021/10/23 06:46:31;;;;;;;2.70;1.70;;;;;;;9.06;64.11;96550.22;6094760;23;20176;-83
2021/10/23 06:48:57;;;;;;;3.37;1.80;;;;;;;9.05;64.23;96551.16;6095616;23;20179;-84
2021/10/23 06:51:25;;;;;;;4.20;2.27;;;;;;;9.03;64.31;96558.25;6095969;23;20241;-84
2021/10/23 06:53:55;;;;;;;4.53;1.83;;;;;;;9.12;64.16;96557.38;6095274;23;20203;-83
2021/10/23 06:56:22;;;;;;;3.03;2.13;;;;;;;9.16;63.94;96552.75;6095211;23;20168;-84
2021/10/23 06:58:48;;;;;;;2.67;1.70;;;;;;;9.17;64.07;96570.59;6095880;23;20188;-84
2021/10/23 07:01:15;;;;;;;3.37;2.20;;;;;;;9.09;63.71;96573.06;6095635;23;20203;-84
2021/10/23 07:03:43;;;;;;;4.67;1.90;;;;;;;9.09;63.83;96577.38;6094828;23;20212;-84
2021/10/23 07:06:10;;;;;;;4.87;1.83;;;;;;;9.13;64.22;96582.09;6095163;23;20176;-84
2021/10/23 07:08:36;;;;;;;3.60;1.70;;;;;;;9.11;63.58;96576.31;6096099;23;20176;-86
2021/10/23 07:11:05;;;;;;;3.13;1.80;;;;;;;9.09;63.54;96585.09;6095162;23;20251;-84
2021/10/23 07:13:32;;;;;;;2.37;1.53;;;;;;;9.07;63.75;96594.72;6095382;23;20232;-84
2021/10/23 07:15:58;;;;;;;4.70;2.17;;;;;;;9.09;64.22;96593.63;6096398;23;20187;-85
2021/10/23 07:18:25;;;;;;;2.73;1.87;;;;;;;9.10;63.73;96592.66;6094722;23;20215;-85
2021/10/23 07:20:52;;;;;;;3.43;1.70;;;;;;;9.15;63.84;96593.06;6094825;23;20952;-84
2021/10/23 07:23:19;;;;;;;6.53;1.73;;;;;;;9.25;63.83;96601.50;6095551;23;20202;-86
2021/10/23 07:25:46;;;;;;;6.93;1.80;;;;;;;9.35;63.66;96604.03;6095007;23;20187;-84
2021/10/23 07:28:13;;;;;;;3.67;1.50;;;;;;;9.39;63.29;96617.41;6095473;23;20203;-84
2021/10/23 07:30:39;;;;;;;3.20;1.60;;;;;;;9.43;63.75;96608.47;6095376;23;20488;-84
2021/10/23 07:33:09;;;;;;;3.87;1.70;;;;;;;9.47;63.78;96617.50;6095341;23;20638;-84
2021/10/23 07:35:35;;;;;;;3.93;1.67;;;;;;;9.49;63.61;96613.84;6095397;23;20180;-85
2021/10/23 07:38:04;;;;;;;3.90;1.60;;;;;;;9.53;63.15;96628.03;6095043;23;20650;-84
2021/10/23 07:40:30;;;;;;;2.03;1.57;;;;;;;9.58;63.37;96632.75;6094723;23;20180;-84
2021/10/23 07:42:57;;;;;;;2.33;1.57;;;;;;;9.59;63.59;96629.22;6094781;23;20180;-85
2021/10/23 07:45:24;;;;;;;5.30;1.83;;;;;;;9.63;63.06;96635.66;6095210;23;20180;-85
2021/10/23 07:47:50;;;;;;;3.93;1.90;;;;;;;9.61;64.01;96647.88;6094581;23;20787;-84
2021/10/23 07:50:17;;;;;;;3.80;1.80;;;;;;;9.65;63.64;96656.91;6095118;23;20187;-83
2021/10/23 07:52:44;;;;;;;4.43;1.80;;;;;;;9.68;64.44;96659.19;6096043;23;20180;-83
2021/10/23 07:55:12;;;;;;;3.00;1.80;;;;;;;9.73;64.52;96653.63;6095609;23;20196;-83
2021/10/23 07:57:40;;;;;;;4.47;1.80;;;;;;;9.83;63.66;96662.88;6095089;23;20492;-83
2021/10/23 08:00:09;;;;;;;6.03;2.10;;;;;;;9.92;63.62;96658.66;6095986;23;20176;-84
2021/10/23 08:02:35;;;;;;;4.40;1.93;;;;;;;9.92;63.66;96666.38;6094314;23;20239;-83
2021/10/23 08:05:02;;;;;;;2.83;1.73;;;;;;;9.98;63.38;96658.88;6094324;23;20192;-85
2021/10/23 08:07:28;;;;;;;4.13;1.83;;;;;;;10.00;63.01;96661.31;6095524;23;20180;-83
2021/10/23 08:10:05;;;;;;;5.87;2.00;;;;;;;10.00;62.79;96658.75;6095968;23;20642;-86
2021/10/23 08:12:38;;;;;;;3.77;1.93;;;;;;;9.85;63.20;96663.56;6097233;23;20180;-85
2021/10/23 08:15:08;;;;;;;4.83;2.10;;;;;;;9.92;63.15;96656.88;6100872;23;20283;-85
2021/10/23 08:17:38;;;;;;;2.80;1.67;;;;;;;9.98;63.17;96658.06;6098373;23;20208;-87
2021/10/23 08:20:10;;;;;;;3.40;2.07;;;;;;;10.06;63.05;96650.41;6098507;23;20177;-87
2021/10/23 08:22:38;;;;;;;4.10;1.90;;;;;;;10.14;62.60;96647.94;6098396;23;20192;-86
2021/10/23 08:25:07;;;;;;;4.10;1.53;;;;;;;10.24;62.68;96647.88;6098236;23;20200;-86
2021/10/23 08:27:37;;;;;;;5.50;2.20;;;;;;;10.30;61.89;96627.50;6097235;23;20263;-87
2021/10/23 08:30:05;;;;;;;4.27;2.40;;;;;;;10.39;61.66;96618.09;6098881;23;20240;-87
2021/10/23 08:32:32;;;;;;;3.50;1.93;;;;;;;10.68;61.50;96618.59;6099524;23;20176;-87
2021/10/23 08:34:59;;;;;;;4.77;2.47;;;;;;;11.23;60.59;96623.38;6100024;23;20200;-86
2021/10/23 08:37:33;;;;;;;8.07;2.50;;;;;;;11.37;58.54;96625.38;6099694;23;20275;-87
2021/10/23 08:40:05;;;;;;;3.20;1.87;;;;;;;11.60;58.84;96617.88;6099996;23;20168;-86
2021/10/23 08:42:32;;;;;;;2.73;1.80;;;;;;;11.99;57.95;96612.19;6099828;23;20720;-87
2021/10/23 08:45:04;;;;;;;3.40;2.03;;;;;;;12.21;56.28;96608.97;6100506;23;20204;-86
2021/10/23 08:47:31;;;;;;;3.57;1.80;;;;;;;12.50;56.46;96615.44;6099753;23;20167;-87
2021/10/23 08:49:59;;;;;;;3.57;1.93;;;;;;;12.69;55.30;96618.47;6100252;23;20188;-87
2021/10/23 08:52:27;;;;;;;3.23;1.80;;;;;;;12.80;55.40;96619.91;6099584;23;20180;-86
2021/10/23 08:54:56;;;;;;;4.40;2.10;;;;;;;12.87;55.18;96618.28;6098977;23;20227;-86
2021/10/23 08:57:25;;;;;;;3.00;1.80;;;;;;;13.04;54.39;96621.63;6099853;23;20179;-85
2021/10/23 08:59:52;;;;;;;2.33;1.80;;;;;;;13.14;53.95;96624.81;6099886;23;20775;-86
2021/10/23 09:02:23;;;;;;;4.30;1.90;;;;;;;13.29;53.69;96628.34;6099670;23;20211;-86
2021/10/23 09:04:51;;;;;;;2.23;1.80;;;;;;;13.43;53.77;96632.84;6099227;23;20279;-86
2021/10/23 09:07:22;;;;;;;4.80;1.90;;;;;;;13.40;52.33;96627.19;6099654;23;20202;-86
2021/10/23 09:09:56;;;;;;;5.40;1.73;;;;;;;13.56;52.96;96628.88;6099670;23;20200;-86
2021/10/23 09:12:25;;;;;;;3.57;1.93;;;;;;;13.64;53.00;96636.63;6099712;23;20649;-86
2021/10/23 09:15:05;;;;;;;4.00;1.80;;;;;;;13.68;52.71;96623.16;6099309;23;20196;-87
2021/10/23 09:17:34;;;;;;;3.80;1.80;;;;;;;13.78;52.09;96621.16;6090811;23;20752;-86
2021/10/23 09:20:06;;;;;;;3.63;1.70;;;;;;;13.80;51.33;96628.75;6113715;23;20180;-85
2021/10/23 09:22:36;;;;;;;3.27;1.70;;;;;;;13.83;51.42;96625.84;6098420;23;20583;-87
2021/10/23 09:25:12;;;;;;;3.00;1.70;;;;;;;13.80;51.34;96616.63;6097741;23;20196;-86
2021/10/23 09:27:55;;;;;;;3.63;1.70;;;;;;;13.84;50.99;96622.28;6097199;23;20176;-86
2021/10/23 09:30:24;;;;;;;5.40;1.90;;;;;;;13.96;51.66;96615.72;6098329;23;20157;-85
2021/10/23 09:32:55;;;;;;;3.63;1.90;;;;;;;14.07;51.82;96615.31;6097164;23;20690;-86
2021/10/23 09:35:26;;;;;;;3.80;1.80;;;;;;;14.04;52.10;96622.63;6097868;23;20228;-86
2021/10/23 09:37:57;;;;;;;4.23;2.00;;;;;;;13.93;52.90;96621.22;6097083;23;20165;-86
2021/10/23 09:40:29;;;;;;;5.43;1.67;;;;;;;13.79;51.94;96616.78;6097705;23;20165;-86
2021/10/23 09:43:10;;;;;;;2.80;1.60;;;;;;;13.64;51.79;96618.50;6098171;23;20702;-87
2021/10/23 09:45:43;;;;;;;2.93;1.93;;;;;;;13.41;52.45;96633.97;6098392;23;20164;-86
2021/10/23 09:48:12;;;;;;;5.97;1.90;;;;;;;13.59;52.56;96624.19;6098697;23;20518;-86
2021/10/23 09:50:39;;;;;;;2.77;1.80;;;;;;;13.59;52.97;96626.78;6098249;23;20239;-86
2021/10/23 09:53:08;;;;;;;4.43;2.07;;;;;;;13.61;52.93;96619.66;6097934;23;20251;-85
2021/10/23 09:55:53;;;;;;;4.17;1.70;;;;;;;13.73;53.13;96622.66;6098287;23;20255;-86
2021/10/23 09:58:22;;;;;;;6.27;2.10;;;;;;;13.76;53.62;96630.88;6097517;23;20161;-86
2021/10/23 10:00:50;;;;;;;4.03;1.80;;;;;;;13.87;52.78;96623.69;6098737;23;20247;-86
2021/10/23 10:03:21;;;;;;;4.37;1.87;;;;;;;13.59;53.54;96631.94;6097158;23;20697;-86
2021/10/23 10:05:58;;;;;;;5.07;2.00;;;;;;;13.42;53.39;96633.81;6096635;23;20157;-86
2021/10/23 10:08:25;;;;;;;4.30;2.00;;;;;;;13.56;53.71;96627.09;6097481;23;20165;-87
2021/10/23 10:10:56;;;;;;;4.67;1.70;;;;;;;13.69;53.26;96622.16;6097511;23;20175;-87
2021/10/23 10:13:27;;;;;;;5.00;1.87;;;;;;;13.74;51.84;96621.66;6097675;23;20197;-87
2021/10/23 10:15:59;;;;;;;3.40;1.70;;;;;;;13.88;51.56;96630.47;6098097;23;20568;-86
2021/10/23 10:18:35;;;;;;;3.33;1.90;;;;;;;13.91;51.87;96633.53;6097711;23;20208;-87
2021/10/23 10:21:01;;;;;;;3.33;1.83;;;;;;;13.97;51.04;96632.88;6097833;23;20504;-88
2021/10/23 10:23:32;;;;;;;3.27;1.83;;;;;;;13.94;50.90;96617.66;6098123;23;20208;-86
2021/10/23 10:26:31;;;;;;;2.33;1.83;;;;;;;13.68;51.42;96623.16;6099395;23;20185;-86
2021/10/23 10:29:25;;;;;;;3.00;1.53;;;;;;;13.54;52.17;96615.31;6098734;23;20381;-87
2021/10/23 10:31:56;;;;;;;2.53;1.60;;;;;;;13.37;53.09;96628.31;6099206;23;20161;-88
2021/10/23 10:35:04;;;;;;;2.77;1.80;;;;;;;13.29;52.81;96630.13;6098036;23;20299;-85
2021/10/23 10:43:14;;;;;;;2.13;1.57;;;;;;;13.49;53.08;96623.56;6096929;23;20183;-85
2021/10/23 10:45:56;;;;;;;4.43;1.50;;;;;;;13.64;52.89;96613.31;6097696;23;20180;-85
2021/10/23 10:48:36;;;;;;;3.17;1.40;;;;;;;13.68;52.88;96615.38;6097414;23;20236;-85
2021/10/23 10:51:20;;;;;;;1.83;1.60;;;;;;;13.89;52.94;96616.56;6097143;23;20164;-85
2021/10/23 10:54:07;;;;;;;3.77;1.93;;;;;;;13.90;53.53;96623.34;6097082;23;20204;-85
2021/10/23 10:56:46;;;;;;;2.70;1.93;;;;;;;13.79;53.03;96616.78;6097627;23;20187;-84
2021/10/23 10:59:13;;;;;;;2.37;1.73;;;;;;;13.66;53.08;96616.56;6098578;23;20179;-86
2021/10/23 11:01:39;;;;;;;2.73;1.73;;;;;;;13.44;53.03;96620.69;6099275;23;20203;-83
2021/10/23 11:04:08;;;;;;;3.83;1.60;;;;;;;13.44;52.66;96623.28;6102787;23;20208;-87
2021/10/23 11:06:52;;;;;;;2.30;1.80;;;;;;;13.45;52.35;96617.94;6101841;23;20176;-87
2021/10/23 11:09:52;;;;;;;3.73;2.00;;;;;;;13.54;52.78;96602.38;6101396;23;20216;-87
2021/10/23 11:12:31;;;;;;;3.03;1.50;;;;;;;13.56;51.95;96608.19;6101517;23;20161;-87
2021/10/23 11:14:58;;;;;;;4.37;2.00;;;;;;;13.54;51.48;96608.34;6100492;23;20259;-87
2021/10/23 11:17:25;;;;;;;5.23;1.80;;;;;;;13.57;51.72;96609.78;6099925;23;20214;-87
2021/10/23 11:19:59;;;;;;;3.97;1.60;;;;;;;13.68;51.24;96612.78;6099278;23;20187;-86
2021/10/23 11:22:30;;;;;;;3.17;1.77;;;;;;;13.57;49.73;96608.00;6098683;23;20402;-87
2021/10/23 11:25:03;;;;;;;3.10;1.70;;;;;;;13.63;50.34;96611.72;6097736;23;20198;-87
2021/10/23 11:27:33;;;;;;;2.27;1.40;;;;;;;13.61;49.92;96606.72;6099699;23;20544;-88
2021/10/23 11:30:16;;;;;;;1.83;1.20;;;;;;;13.60;50.06;96609.47;6099262;23;20187;-88
2021/10/23 11:32:46;;;;;;;2.57;1.50;;;;;;;13.41;50.00;96608.09;6098796;23;20175;-87
2021/10/23 11:35:13;;;;;;;3.43;1.40;;;;;;;13.14;50.45;96602.34;6099237;23;20192;-87
2021/10/23 11:37:42;;;;;;;1.77;1.20;;;;;;;13.17;49.87;96603.81;6098907;23;20176;-87
2021/10/23 11:40:11;;;;;;;1.50;1.30;;;;;;;13.28;48.65;96600.06;6098818;23;20235;-87
2021/10/23 11:42:45;;;;;;;2.27;1.47;;;;;;;13.44;49.40;96600.81;6098273;23;20212;-87
2021/10/23 11:45:14;;;;;;;1.10;1.00;;;;;;;13.57;48.65;96595.06;6098347;23;20207;-87
2021/10/23 11:47:41;;;;;;;2.40;1.30;;;;;;;13.62;47.61;96594.56;6098593;23;20176;-86
2021/10/23 11:50:17;;;;;;;1.23;1.13;;;;;;;13.61;47.54;96598.94;6097944;23;20409;-87
2021/10/23 11:52:52;;;;;;;4.03;1.20;;;;;;;13.74;46.99;96588.03;6098018;23;20529;-88